createdAt,value
2023-05-10T00:02:24.227Z,3.75
2023-05-10T00:04:51.913Z,4.70
2023-05-10T00:07:19.167Z,5.95
2023-05-10T00:09:46.235Z,4.80
2023-05-10T00:12:14.611Z,5.13
2023-05-10T00:14:41.688Z,5.30
2023-05-10T00:17:08.726Z,4.32
2023-05-10T00:19:35.794Z,4.70
2023-05-10T00:22:04.075Z,5.47
2023-05-10T00:24:31.245Z,4.20
2023-05-10T00:26:58.322Z,3.65
2023-05-10T00:29:25.954Z,4.10
2023-05-10T00:31:53.320Z,4.85
2023-05-10T00:34:20.601Z,4.90
2023-05-10T00:36:47.625Z,4.68
2023-05-10T00:39:14.741Z,4.93
2023-05-10T00:41:41.765Z,4.53
2023-05-10T00:44:08.844Z,4.72
2023-05-10T00:46:37.374Z,4.38
2023-05-10T00:49:05.437Z,4.72
2023-05-10T00:51:32.705Z,5.18
2023-05-10T00:53:59.922Z,5.03
2023-05-10T00:56:27.957Z,4.47
2023-05-10T00:58:55.254Z,4.32
2023-05-10T01:01:22.598Z,4.05
2023-05-10T01:03:49.757Z,4.43
2023-05-10T01:06:16.853Z,3.75
2023-05-10T01:08:44.076Z,4.65
2023-05-10T01:11:11.424Z,4.03
2023-05-10T01:13:41.957Z,4.03
2023-05-10T01:16:09.148Z,4.22
2023-05-10T01:18:39.129Z,4.35
2023-05-10T01:21:22.704Z,4.90
2023-05-10T01:23:58.775Z,4.78
2023-05-10T01:26:54.145Z,3.88
2023-05-10T01:30:13.530Z,4.53
2023-05-10T01:33:01.063Z,4.40
2023-05-10T01:35:52.364Z,4.10
2023-05-10T01:38:42.190Z,4.20
2023-05-10T01:41:18.077Z,4.18
2023-05-10T01:43:58.710Z,4.43
2023-05-10T01:46:32.460Z,3.90
2023-05-10T01:49:01.632Z,3.83
2023-05-10T01:51:37.537Z,4.55
2023-05-10T01:54:06.574Z,3.65
2023-05-10T01:56:36.001Z,4.85
2023-05-10T01:59:09.872Z,4.35
2023-05-10T02:01:39.859Z,4.50
2023-05-10T02:04:10.011Z,4.15
2023-05-10T02:06:40.506Z,4.63
2023-05-10T02:09:09.358Z,4.43
2023-05-10T02:11:39.528Z,4.60
2023-05-10T02:14:11.647Z,4.60
2023-05-10T02:16:41.552Z,4.72
2023-05-10T02:19:10.318Z,4.68
2023-05-10T02:21:40.151Z,4.47
2023-05-10T02:24:09.873Z,4.85
2023-05-10T02:26:38.285Z,4.80
2023-05-10T02:29:07.761Z,4.32
2023-05-10T02:31:36.473Z,5.05
2023-05-10T02:34:04.978Z,4.43
2023-05-10T02:36:32.948Z,4.60
2023-05-10T02:39:02.966Z,4.40
2023-05-10T02:41:33.854Z,4.65
2023-05-10T02:44:04.234Z,5.00
2023-05-10T02:46:31.960Z,4.72
2023-05-10T02:49:01.017Z,4.70
2023-05-10T02:51:35.848Z,4.60
2023-05-10T02:54:11.433Z,4.70
2023-05-10T02:56:43.602Z,5.18
2023-05-10T02:59:10.987Z,5.07
2023-05-10T03:01:38.112Z,4.75
2023-05-10T03:04:05.420Z,5.03
2023-05-10T03:06:32.596Z,4.90
2023-05-10T03:08:59.853Z,5.07
2023-05-10T03:11:32.967Z,5.43
2023-05-10T03:14:18.346Z,4.93
2023-05-10T03:16:48.462Z,4.60
2023-05-10T03:19:23.630Z,4.63
2023-05-10T03:21:54.063Z,4.85
2023-05-10T03:24:28.663Z,5.57
2023-05-10T03:27:00.419Z,5.03
2023-05-10T03:29:29.149Z,5.20
2023-05-10T03:31:56.340Z,4.65
2023-05-10T03:34:26.942Z,4.93
2023-05-10T03:36:54.235Z,4.50
2023-05-10T03:39:22.402Z,5.05
2023-05-10T03:41:49.501Z,4.85
2023-05-10T03:44:16.570Z,4.93
2023-05-10T03:46:43.830Z,5.00
2023-05-10T03:49:11.200Z,5.07
2023-05-10T03:51:38.283Z,4.80
2023-05-10T03:54:05.410Z,5.20
2023-05-10T03:56:32.420Z,5.03
2023-05-10T03:58:59.489Z,5.45
2023-05-10T04:01:26.606Z,4.75
2023-05-10T04:03:54.382Z,4.80
2023-05-10T04:06:21.930Z,5.20
2023-05-10T04:08:49.092Z,5.35
2023-05-10T04:11:16.521Z,5.40
2023-05-10T04:13:44.133Z,5.43
2023-05-10T04:16:11.245Z,5.53
2023-05-10T04:18:38.327Z,5.35
2023-05-10T04:21:05.495Z,5.90
2023-05-10T04:23:32.620Z,5.30
2023-05-10T04:26:04.777Z,5.90
2023-05-10T04:28:32.024Z,5.78
2023-05-10T04:31:03.664Z,8.27
2023-05-10T04:35:58.216Z,5.70
2023-05-10T04:38:25.807Z,11.25
2023-05-10T04:40:53.094Z,5.72
2023-05-10T04:43:20.294Z,11.18
2023-05-10T04:45:49.629Z,14.43
2023-05-10T04:48:16.982Z,6.07
2023-05-10T04:50:44.004Z,12.95
2023-05-10T04:53:11.150Z,7.32
2023-05-10T04:55:39.602Z,12.00
2023-05-10T04:58:06.735Z,6.03
2023-05-10T05:00:34.634Z,7.05
2023-05-10T05:03:02.072Z,11.98
2023-05-10T05:05:29.251Z,8.05
2023-05-10T05:07:56.304Z,5.88
2023-05-10T05:10:26.044Z,5.25
2023-05-10T05:12:53.288Z,7.13
2023-05-10T05:15:22.129Z,6.38
2023-05-10T05:17:49.248Z,5.47
2023-05-10T05:20:16.907Z,14.68
2023-05-10T05:22:44.312Z,9.68
2023-05-10T05:25:12.850Z,5.95
2023-05-10T05:27:39.883Z,5.60
2023-05-10T05:30:08.284Z,6.35
2023-05-10T05:32:35.381Z,5.57
2023-05-10T05:35:02.795Z,7.07
2023-05-10T05:37:30.131Z,9.73
2023-05-10T05:39:58.058Z,6.25
2023-05-10T05:42:25.568Z,5.82
2023-05-10T05:44:52.678Z,5.75
2023-05-10T05:47:19.705Z,7.28
2023-05-10T05:49:46.943Z,5.65
2023-05-10T05:52:14.421Z,6.45
2023-05-10T05:54:41.609Z,6.07
2023-05-10T05:57:11.255Z,9.48
2023-05-10T05:59:42.900Z,6.18
2023-05-10T06:04:37.371Z,5.50
2023-05-10T06:07:04.581Z,5.13
2023-05-10T06:09:31.835Z,13.25
2023-05-10T06:11:59.191Z,6.07
2023-05-10T06:14:26.280Z,13.95
2023-05-10T06:16:53.478Z,8.52
2023-05-10T06:19:20.941Z,9.88
2023-05-10T06:21:48.213Z,5.65
2023-05-10T06:24:15.412Z,8.50
2023-05-10T06:26:42.919Z,5.57
2023-05-10T06:29:10.331Z,5.88
2023-05-10T06:31:37.414Z,5.97
2023-05-10T06:34:04.487Z,7.22
2023-05-10T06:36:32.115Z,5.68
2023-05-10T06:39:00.241Z,10.52
2023-05-10T06:41:27.661Z,5.40
2023-05-10T06:43:54.843Z,5.35
2023-05-10T06:46:26.903Z,5.68
2023-05-10T06:48:54.123Z,5.45
2023-05-10T06:51:22.224Z,5.20
2023-05-10T06:53:49.645Z,5.95
2023-05-10T06:56:16.773Z,10.52
2023-05-10T06:58:44.252Z,8.45
2023-05-10T07:01:14.489Z,11.95
2023-05-10T07:03:41.660Z,5.90
2023-05-10T07:06:15.676Z,9.80
2023-05-10T07:08:49.156Z,5.13
2023-05-10T07:11:16.365Z,5.03
2023-05-10T07:13:45.453Z,5.45
2023-05-10T07:16:12.704Z,7.63
2023-05-10T07:18:39.807Z,6.75
2023-05-10T07:21:07.239Z,5.50
2023-05-10T07:23:34.320Z,5.22
2023-05-10T07:26:03.489Z,7.78
2023-05-10T07:28:30.954Z,5.75
2023-05-10T07:30:59.780Z,5.55
2023-05-10T07:33:29.637Z,5.70
2023-05-10T07:35:56.693Z,6.10
2023-05-10T07:38:24.338Z,13.20
2023-05-10T07:40:51.476Z,8.40
2023-05-10T07:43:20.199Z,10.55
2023-05-10T07:45:47.332Z,7.25
2023-05-10T07:48:14.444Z,6.55
2023-05-10T07:50:41.727Z,4.60
2023-05-10T07:53:08.765Z,5.18
2023-05-10T07:55:36.210Z,5.20
2023-05-10T07:58:03.784Z,6.28
2023-05-10T08:00:30.860Z,5.40
2023-05-10T08:02:59.622Z,5.93
2023-05-10T08:05:26.872Z,5.20
2023-05-10T08:07:54.116Z,27.90
2023-05-10T08:10:21.583Z,4.80
2023-05-10T08:12:48.984Z,4.65
2023-05-10T08:15:16.461Z,4.50
2023-05-10T08:17:44.191Z,4.70
2023-05-10T08:20:13.789Z,6.22
2023-05-10T08:22:41.363Z,4.43
2023-05-10T08:25:09.153Z,4.97
2023-05-10T08:27:36.207Z,5.07
2023-05-10T08:30:05.175Z,4.30
2023-05-10T08:32:32.577Z,7.82
2023-05-10T08:34:59.678Z,13.32
2023-05-10T08:37:31.056Z,7.03
2023-05-10T08:39:58.617Z,14.90
2023-05-10T08:42:31.034Z,14.43
2023-05-10T08:44:59.190Z,14.13
2023-05-10T08:47:26.712Z,5.28
2023-05-10T08:49:55.243Z,5.75
2023-05-10T08:52:25.738Z,18.52
2023-05-10T08:54:53.188Z,9.63
2023-05-10T08:57:20.970Z,5.03
2023-05-10T08:59:48.463Z,4.75
2023-05-10T09:02:18.605Z,6.00
2023-05-10T09:04:46.058Z,14.20
2023-05-10T09:07:13.565Z,22.45
2023-05-10T09:09:41.788Z,6.47
2023-05-10T09:12:12.157Z,4.88
2023-05-10T09:14:39.960Z,5.00
2023-05-10T09:17:09.470Z,5.07
2023-05-10T09:19:36.892Z,4.85
2023-05-10T09:22:04.157Z,5.20
2023-05-10T09:24:32.030Z,5.63
2023-05-10T09:27:02.189Z,4.63
2023-05-10T09:29:42.803Z,4.22
2023-05-10T09:32:10.033Z,5.70
2023-05-10T09:37:09.148Z,5.05
2023-05-10T09:39:37.743Z,4.38
2023-05-10T09:42:07.903Z,27.02
2023-05-10T09:44:36.189Z,69.45
2023-05-10T09:47:03.731Z,25.63
2023-05-10T09:49:31.306Z,9.80
2023-05-10T09:52:03.583Z,9.02
2023-05-10T09:54:31.564Z,9.18
2023-05-10T09:56:58.823Z,8.55
2023-05-10T09:59:27.955Z,4.97
2023-05-10T10:02:00.392Z,5.85
2023-05-10T10:04:28.237Z,4.43
2023-05-10T10:07:05.950Z,4.65
2023-05-10T10:09:34.531Z,5.93
2023-05-10T10:12:03.425Z,6.78
2023-05-10T10:14:30.722Z,4.35
2023-05-10T10:17:07.680Z,4.57
2023-05-10T10:19:37.133Z,5.85
2023-05-10T10:22:05.058Z,26.38
2023-05-10T10:24:32.249Z,12.88
2023-05-10T10:27:09.252Z,5.45
2023-05-10T10:29:45.758Z,14.90
2023-05-10T10:32:28.285Z,7.70
2023-05-10T10:34:56.728Z,8.20
2023-05-10T10:37:23.936Z,10.23
2023-05-10T10:39:51.434Z,10.48
2023-05-10T10:42:48.094Z,4.93
2023-05-10T10:45:15.455Z,5.65
2023-05-10T10:47:44.280Z,4.82
2023-05-10T10:50:14.042Z,12.57
2023-05-10T10:52:42.290Z,4.72
2023-05-10T10:55:24.553Z,5.18
2023-05-10T10:57:53.512Z,8.20
2023-05-10T11:00:31.963Z,9.88
2023-05-10T11:03:09.495Z,5.88
2023-05-10T11:05:42.817Z,6.10
2023-05-10T11:08:29.441Z,11.35
2023-05-10T11:11:08.474Z,7.93
2023-05-10T11:13:42.564Z,9.57
2023-05-10T11:16:27.874Z,15.02
2023-05-10T11:19:02.208Z,15.65
2023-05-10T11:21:32.085Z,13.32
2023-05-10T11:24:07.331Z,6.70
2023-05-10T11:26:38.152Z,11.50
2023-05-10T11:29:06.322Z,10.00
2023-05-10T11:31:33.766Z,8.80
2023-05-10T11:34:04.624Z,8.48
2023-05-10T11:36:37.082Z,6.50
2023-05-10T11:39:05.116Z,8.00
2023-05-10T11:41:32.897Z,8.85
2023-05-10T11:44:00.438Z,8.63
2023-05-10T11:46:29.331Z,8.05
2023-05-10T11:49:02.686Z,7.03
2023-05-10T11:51:30.496Z,7.40
2023-05-10T11:53:58.230Z,8.65
2023-05-10T11:56:27.539Z,7.28
2023-05-10T11:58:56.809Z,8.10
2023-05-10T12:01:25.496Z,8.02
2023-05-10T12:03:55.083Z,8.75
2023-05-10T12:06:23.189Z,16.17
2023-05-10T12:08:54.646Z,12.13
2023-05-10T12:13:52.697Z,9.68
2023-05-10T12:16:25.723Z,11.85
2023-05-10T12:18:57.699Z,16.80
2023-05-10T12:21:25.462Z,12.52
2023-05-10T12:23:54.797Z,11.45
2023-05-10T12:26:29.340Z,9.88
2023-05-10T12:29:13.371Z,13.77
2023-05-10T12:32:00.510Z,20.17
2023-05-10T12:34:35.305Z,16.40
2023-05-10T12:37:03.538Z,14.88
2023-05-10T12:39:45.056Z,9.10
2023-05-10T12:42:12.578Z,9.80
2023-05-10T12:44:40.829Z,9.98
2023-05-10T12:47:08.117Z,9.18
2023-05-10T12:49:35.410Z,14.90
2023-05-10T12:52:02.816Z,13.50
2023-05-10T12:54:29.885Z,9.48
2023-05-10T12:56:57.239Z,13.30
2023-05-10T12:59:24.745Z,12.80
2023-05-10T13:01:51.889Z,11.63
2023-05-10T13:04:19.321Z,7.40
2023-05-10T13:06:46.932Z,8.40
2023-05-10T13:09:14.542Z,6.13
2023-05-10T13:11:41.956Z,6.60
2023-05-10T13:14:09.159Z,6.95
2023-05-10T13:16:37.155Z,7.50
2023-05-10T13:19:04.619Z,6.68
2023-05-10T13:21:32.163Z,6.20
2023-05-10T13:23:59.301Z,6.30
2023-05-10T13:26:26.641Z,5.38
2023-05-10T13:28:56.768Z,6.22
2023-05-10T13:31:23.866Z,6.68
2023-05-10T13:33:51.549Z,6.60
2023-05-10T13:36:19.095Z,5.60
2023-05-10T13:38:46.915Z,6.00
2023-05-10T13:41:14.677Z,6.18
2023-05-10T13:43:42.135Z,6.10
2023-05-10T13:46:09.400Z,6.65
2023-05-10T13:48:39.207Z,6.63
2023-05-10T13:51:06.883Z,6.68
2023-05-10T13:53:34.366Z,6.65
2023-05-10T13:56:01.662Z,6.63
2023-05-10T13:58:29.000Z,6.45
2023-05-10T14:00:57.032Z,6.38
2023-05-10T14:03:24.240Z,6.32
2023-05-10T14:05:51.809Z,6.10
2023-05-10T14:08:18.974Z,5.40
2023-05-10T14:10:45.998Z,6.33
2023-05-10T14:13:14.390Z,5.40
2023-05-10T14:15:42.304Z,5.78
2023-05-10T14:18:09.461Z,4.97
2023-05-10T14:20:36.590Z,3.75
2023-05-10T14:23:03.680Z,4.63
2023-05-10T14:25:31.094Z,3.90
2023-05-10T14:27:58.219Z,3.65
2023-05-10T14:30:25.640Z,4.40
2023-05-10T14:32:54.997Z,4.05
2023-05-10T14:35:22.508Z,4.03
2023-05-10T14:37:49.976Z,3.83
2023-05-10T14:40:18.094Z,3.58
2023-05-10T14:42:45.302Z,3.30
2023-05-10T14:45:13.201Z,3.33
2023-05-10T14:47:40.809Z,3.25
2023-05-10T14:50:08.848Z,3.10
2023-05-10T14:52:36.016Z,3.10
2023-05-10T14:55:04.514Z,3.45
2023-05-10T14:57:32.630Z,4.03
2023-05-10T15:00:04.739Z,3.65
2023-05-10T15:02:33.177Z,3.97
2023-05-10T15:05:01.172Z,3.75
2023-05-10T15:07:29.166Z,3.55
2023-05-10T15:09:57.254Z,4.00
2023-05-10T15:12:24.721Z,3.80
2023-05-10T15:14:52.090Z,2.85
2023-05-10T15:17:19.357Z,3.20
2023-05-10T15:19:46.877Z,3.15
2023-05-10T15:22:14.276Z,3.22
2023-05-10T15:24:42.452Z,3.00
2023-05-10T15:27:10.109Z,3.30
2023-05-10T15:29:37.259Z,3.72
2023-05-10T15:32:04.870Z,3.45
2023-05-10T15:34:34.925Z,3.55
2023-05-10T15:37:03.064Z,3.72
2023-05-10T15:39:30.704Z,3.53
2023-05-10T15:41:58.093Z,4.13
2023-05-10T15:44:25.500Z,4.13
2023-05-10T15:46:53.264Z,4.78
2023-05-10T15:49:20.733Z,3.33
2023-05-10T15:51:48.557Z,4.75
2023-05-10T15:54:16.115Z,6.53
2023-05-10T15:56:43.803Z,4.75
2023-05-10T15:59:12.220Z,3.28
2023-05-10T16:01:39.709Z,3.63
2023-05-10T16:04:07.334Z,4.32
2023-05-10T16:06:36.455Z,3.42
2023-05-10T16:09:04.466Z,2.55
2023-05-10T16:11:31.630Z,2.40
2023-05-10T16:13:59.080Z,2.47
2023-05-10T16:16:26.292Z,2.28
2023-05-10T16:18:54.438Z,2.20
2023-05-10T16:21:22.792Z,2.17
2023-05-10T16:23:50.007Z,2.35
2023-05-10T16:26:18.030Z,2.70
2023-05-10T16:28:45.257Z,2.72
2023-05-10T16:31:12.641Z,2.30
2023-05-10T16:33:40.529Z,2.72
2023-05-10T16:36:07.763Z,2.58
2023-05-10T16:38:35.008Z,2.78
2023-05-10T16:41:04.141Z,2.95
2023-05-10T16:43:32.902Z,2.80
2023-05-10T16:46:00.336Z,2.88
2023-05-10T16:48:28.219Z,2.22
2023-05-10T16:50:55.665Z,2.97
2023-05-10T16:53:22.860Z,2.90
2023-05-10T16:55:50.294Z,2.67
2023-05-10T16:58:17.365Z,3.10
2023-05-10T17:00:45.122Z,3.38
2023-05-10T17:03:12.977Z,3.03
2023-05-10T17:05:41.359Z,3.47
2023-05-10T17:08:09.498Z,3.08
2023-05-10T17:10:40.743Z,2.90
2023-05-10T17:13:10.441Z,2.95
2023-05-10T17:15:39.575Z,5.10
2023-05-10T17:18:07.862Z,6.50
2023-05-10T17:20:35.915Z,4.10
2023-05-10T17:23:03.480Z,3.45
2023-05-10T17:25:32.024Z,2.60
2023-05-10T17:28:01.065Z,3.13
2023-05-10T17:30:33.330Z,2.90
2023-05-10T17:33:00.994Z,2.88
2023-05-10T17:35:28.475Z,2.42
2023-05-10T17:37:55.912Z,3.10
2023-05-10T17:40:23.036Z,3.30
2023-05-10T17:42:50.392Z,3.13
2023-05-10T17:45:18.049Z,2.85
2023-05-10T17:47:45.886Z,2.95
2023-05-10T17:50:13.118Z,2.75
2023-05-10T17:52:40.575Z,3.28
2023-05-10T17:55:09.117Z,2.90
2023-05-10T17:57:38.123Z,3.00
2023-05-10T18:00:08.815Z,4.15
2023-05-10T18:02:37.088Z,2.90
2023-05-10T18:05:05.144Z,3.28
2023-05-10T18:07:32.449Z,2.97
2023-05-10T18:10:01.335Z,5.20
2023-05-10T18:12:28.873Z,10.80
2023-05-10T18:14:56.065Z,6.22
2023-05-10T18:17:23.174Z,4.03
2023-05-10T18:19:50.466Z,4.13
2023-05-10T18:22:17.822Z,8.63
2023-05-10T18:24:47.154Z,6.43
2023-05-10T18:27:14.457Z,4.47
2023-05-10T18:29:42.827Z,4.72
2023-05-10T18:32:10.387Z,4.53
2023-05-10T18:34:37.435Z,6.57
2023-05-10T18:37:07.606Z,12.20
2023-05-10T18:39:37.335Z,4.57
2023-05-10T18:42:05.524Z,4.65
2023-05-10T18:44:34.622Z,6.50
2023-05-10T18:47:01.780Z,5.85
2023-05-10T18:49:29.540Z,5.07
2023-05-10T18:51:56.734Z,3.90
2023-05-10T18:54:24.120Z,4.00
2023-05-10T18:56:51.201Z,3.20
2023-05-10T18:59:18.632Z,3.20
2023-05-10T19:01:46.350Z,3.95
2023-05-10T19:04:15.151Z,3.33
2023-05-10T19:06:45.295Z,3.38
2023-05-10T19:09:12.534Z,4.88
2023-05-10T19:11:41.208Z,5.05
2023-05-10T19:14:08.461Z,3.97
2023-05-10T19:16:35.900Z,3.85
2023-05-10T19:19:04.213Z,9.80
2023-05-10T19:21:33.604Z,8.45
2023-05-10T19:24:01.753Z,3.70
2023-05-10T19:26:29.037Z,3.67
2023-05-10T19:28:57.684Z,3.40
2023-05-10T19:31:25.703Z,4.20
2023-05-10T19:33:54.031Z,5.40
2023-05-10T19:36:22.180Z,6.05
2023-05-10T19:38:49.930Z,4.45
2023-05-10T19:41:17.996Z,4.10
2023-05-10T19:43:45.696Z,4.60
2023-05-10T19:46:17.809Z,4.55
2023-05-10T19:48:48.889Z,3.78
2023-05-10T19:51:17.370Z,5.32
2023-05-10T19:53:48.050Z,3.78
2023-05-10T19:56:17.265Z,4.22
2023-05-10T19:58:45.280Z,6.38
2023-05-10T20:01:13.062Z,10.75
2023-05-10T20:03:40.501Z,4.97
2023-05-10T20:06:07.985Z,12.38
2023-05-10T20:08:35.249Z,10.60
2023-05-10T20:11:04.054Z,8.52
2023-05-10T20:13:31.992Z,16.52
2023-05-10T20:16:00.303Z,7.30
2023-05-10T20:18:27.539Z,6.68
2023-05-10T20:20:58.866Z,8.95
2023-05-10T20:23:26.509Z,20.65
2023-05-10T20:25:55.115Z,25.92
2023-05-10T20:28:24.051Z,10.10
2023-05-10T20:30:53.394Z,7.80
2023-05-10T20:33:21.944Z,22.98
2023-05-10T20:35:50.484Z,9.02
2023-05-10T20:38:18.335Z,28.75
2023-05-10T20:40:45.776Z,8.85
2023-05-10T20:43:12.964Z,18.40
2023-05-10T20:45:40.353Z,14.52
2023-05-10T20:48:07.882Z,24.55
2023-05-10T20:50:35.814Z,11.23
2023-05-10T20:53:02.928Z,11.70
2023-05-10T20:55:30.491Z,17.38
2023-05-10T20:57:57.556Z,23.52
2023-05-10T21:00:25.066Z,28.95
2023-05-10T21:02:52.415Z,13.75
2023-05-10T21:05:19.713Z,16.10
2023-05-10T21:07:47.293Z,18.10
2023-05-10T21:10:14.289Z,25.40
2023-05-10T21:12:41.913Z,15.93
2023-05-10T21:15:09.489Z,18.55
2023-05-10T21:17:37.239Z,15.18
2023-05-10T21:20:04.701Z,14.55
2023-05-10T21:22:31.760Z,19.70
2023-05-10T21:24:58.855Z,17.35
2023-05-10T21:27:29.067Z,15.65
2023-05-10T21:29:56.197Z,15.25
2023-05-10T21:32:23.595Z,15.02
2023-05-10T21:34:51.527Z,21.27
2023-05-10T21:37:19.190Z,17.27
2023-05-10T21:39:46.445Z,16.60
2023-05-10T21:42:16.325Z,22.27
2023-05-10T21:44:45.115Z,14.48
2023-05-10T21:47:12.338Z,17.02
2023-05-10T21:49:39.468Z,15.65
2023-05-10T21:52:07.866Z,18.23
2023-05-10T21:54:43.993Z,14.65
2023-05-10T21:57:11.417Z,21.45
2023-05-10T21:59:39.548Z,15.27
2023-05-10T22:02:11.377Z,16.13
2023-05-10T22:04:38.560Z,15.73
2023-05-10T22:07:06.090Z,37.50
2023-05-10T22:09:33.208Z,16.65
2023-05-10T22:12:00.399Z,15.63
2023-05-10T22:14:27.683Z,22.10
2023-05-10T22:16:54.774Z,17.17
2023-05-10T22:19:22.183Z,31.00
2023-05-10T22:21:49.357Z,14.27
2023-05-10T22:24:16.555Z,15.60
2023-05-10T22:26:43.585Z,14.23
2023-05-10T22:29:10.959Z,16.55
2023-05-10T22:31:38.110Z,13.90
2023-05-10T22:34:05.776Z,16.58
2023-05-10T22:36:32.863Z,12.85
2023-05-10T22:38:59.956Z,13.45
2023-05-10T22:41:26.968Z,13.50
2023-05-10T22:43:54.097Z,12.25
2023-05-10T22:46:21.199Z,12.52
2023-05-10T22:48:48.513Z,12.18
2023-05-10T22:51:15.719Z,11.27
2023-05-10T22:53:42.757Z,13.18
2023-05-10T22:56:09.798Z,12.50
2023-05-10T22:58:36.936Z,11.43
2023-05-10T23:01:04.346Z,11.18
2023-05-10T23:03:31.457Z,11.57
2023-05-10T23:05:58.487Z,11.27
2023-05-10T23:08:25.865Z,13.00
2023-05-10T23:10:53.253Z,11.85
2023-05-10T23:13:22.132Z,11.80
2023-05-10T23:15:50.297Z,13.65
2023-05-10T23:18:17.782Z,11.45
2023-05-10T23:20:44.900Z,11.02
2023-05-10T23:23:11.994Z,11.30
2023-05-10T23:25:39.091Z,11.13
2023-05-10T23:28:06.253Z,11.55
2023-05-10T23:30:33.368Z,13.00
2023-05-10T23:33:00.472Z,11.30
2023-05-10T23:35:27.626Z,11.45
2023-05-10T23:37:54.861Z,11.77
2023-05-10T23:40:22.105Z,11.43
2023-05-10T23:42:49.130Z,11.57
2023-05-10T23:45:17.615Z,11.93
2023-05-10T23:47:44.744Z,11.88
2023-05-10T23:50:11.891Z,11.85
2023-05-10T23:52:38.955Z,11.80
2023-05-10T23:55:06.423Z,13.00
2023-05-10T23:57:33.784Z,13.00
